Time;durP1;ratioP1;P1;durP2;ratioP2;P2;SDS_P1;SDS_P2;PMS_P1;PMS_P2;Temp;Humidity;BMP_temperature;BMP_pressure;BME280_temperature;BME280_humidity;BME280_pressure;Samples;Min_cycle;Max_cycle;Signal;HPM_P1;HPM_P2
2023/05/19 00:01:53;;;;;;;10.00;4.65;;;;;;;;;;5099550;27;20054;-71
2023/05/19 00:04:20;;;;;;;13.48;4.80;;;;;;;;;;5100138;28;20085;-71
2023/05/19 00:06:49;;;;;;;7.22;3.75;;;;;;;;;;5106926;28;20099;-71
2023/05/19 00:09:15;;;;;;;9.57;4.15;;;;;;;;;;5105593;27;20535;-71
2023/05/19 00:11:41;;;;;;;6.63;4.18;;;;;;;;;;5093106;28;20028;-71
2023/05/19 00:14:08;;;;;;;10.50;4.43;;;;;;;;;;5099428;27;20031;-71
2023/05/19 00:16:35;;;;;;;12.82;5.00;;;;;;;;;;5103999;27;20034;-71
2023/05/19 00:19:02;;;;;;;9.18;4.53;;;;;;;;;;5096227;28;20103;-71
2023/05/19 00:21:28;;;;;;;12.32;4.82;;;;;;;;;;5090261;28;20024;-70
2023/05/19 00:23:54;;;;;;;16.73;4.82;;;;;;;;;;5106849;27;20114;-71
2023/05/19 00:26:21;;;;;;;12.27;4.32;;;;;;;;;;5107293;27;20028;-71
2023/05/19 00:28:47;;;;;;;10.60;4.70;;;;;;;;;;5096710;27;20047;-71
2023/05/19 00:31:12;;;;;;;7.72;4.70;;;;;;;;;;5103583;27;20032;-71
2023/05/19 00:33:37;;;;;;;9.30;4.50;;;;;;;;;;5101542;27;20020;-71
2023/05/19 00:36:04;;;;;;;14.13;4.50;;;;;;;;;;5099265;27;20042;-71
2023/05/19 00:38:31;;;;;;;9.38;4.85;;;;;;;;;;5103364;27;20420;-71
2023/05/19 00:40:56;;;;;;;13.55;4.60;;;;;;;;;;5096253;28;20044;-71
2023/05/19 00:43:22;;;;;;;10.50;4.38;;;;;;;;;;5087856;27;20036;-71
2023/05/19 00:45:47;;;;;;;13.93;4.75;;;;;;;;;;5107568;28;20027;-71
2023/05/19 00:48:13;;;;;;;19.42;5.38;;;;;;;;;;5104779;27;20028;-71
2023/05/19 00:50:39;;;;;;;12.55;5.07;;;;;;;;;;5096614;28;20035;-71
2023/05/19 00:53:04;;;;;;;11.10;4.68;;;;;;;;;;5100928;27;20070;-71
2023/05/19 00:55:30;;;;;;;18.92;6.07;;;;;;;;;;5107380;27;20103;-71
2023/05/19 00:57:56;;;;;;;11.65;4.88;;;;;;;;;;5094782;27;20024;-71
2023/05/19 01:00:22;;;;;;;12.50;5.05;;;;;;;;;;5098743;28;20100;-71
2023/05/19 01:02:49;;;;;;;8.88;4.80;;;;;;;;;;5104667;28;20084;-71
2023/05/19 01:05:15;;;;;;;14.43;4.40;;;;;;;;;;5103460;27;20679;-70
2023/05/19 01:07:41;;;;;;;10.35;4.72;;;;;;;;;;5096148;28;20039;-71
2023/05/19 01:10:07;;;;;;;11.70;4.63;;;;;;;;;;5101103;27;20023;-71
2023/05/19 01:12:34;;;;;;;14.52;5.38;;;;;;;;;;5099938;28;20020;-71
2023/05/19 01:15:00;;;;;;;8.60;4.68;;;;;;;;;;5108682;27;20039;-71
2023/05/19 01:17:33;;;;;;;8.55;4.57;;;;;;;;;;5102023;28;20727;-71
2023/05/19 01:20:12;;;;;;;10.13;4.75;;;;;;;;;;5092331;28;20035;-71
2023/05/19 01:22:47;;;;;;;12.77;5.05;;;;;;;;;;5085646;27;20119;-71
2023/05/19 01:25:18;;;;;;;11.32;4.88;;;;;;;;;;5095382;27;20046;-71
2023/05/19 01:28:12;;;;;;;12.75;5.00;;;;;;;;;;5098594;28;20034;-71
2023/05/19 01:30:43;;;;;;;10.30;4.60;;;;;;;;;;5091779;27;20077;-71
2023/05/19 01:33:15;;;;;;;10.23;4.95;;;;;;;;;;5094779;28;20028;-71
2023/05/19 01:35:42;;;;;;;12.00;5.03;;;;;;;;;;5095058;27;20463;-71
2023/05/19 01:38:09;;;;;;;8.98;4.82;;;;;;;;;;5096114;28;20036;-72
2023/05/19 01:40:37;;;;;;;10.80;5.00;;;;;;;;;;5096564;27;20028;-72
2023/05/19 01:43:03;;;;;;;9.77;4.85;;;;;;;;;;5079234;27;20020;-71
2023/05/19 01:45:31;;;;;;;11.50;5.05;;;;;;;;;;5103888;28;20028;-71
2023/05/19 01:47:59;;;;;;;11.68;5.10;;;;;;;;;;5094207;28;20451;-71
2023/05/19 01:50:24;;;;;;;8.82;4.88;;;;;;;;;;5092720;28;20124;-71
2023/05/19 01:52:50;;;;;;;11.65;4.78;;;;;;;;;;5098475;27;20440;-71
2023/05/19 01:55:16;;;;;;;11.73;5.20;;;;;;;;;;5088507;28;20039;-71
2023/05/19 01:58:23;;;;;;;11.65;5.25;;;;;;;;;;5090931;28;20518;-71
2023/05/19 02:01:17;;;;;;;10.68;4.97;;;;;;;;;;5074151;28;20075;-71
2023/05/19 02:04:02;;;;;;;11.13;4.80;;;;;;;;;;5093045;27;20126;-71
2023/05/19 02:06:44;;;;;;;9.68;4.85;;;;;;;;;;5097445;28;20040;-71
2023/05/19 02:09:33;;;;;;;15.03;6.27;;;;;;;;;;5095309;27;20080;-71
2023/05/19 02:12:10;;;;;;;9.95;5.03;;;;;;;;;;5088682;28;20525;-71
2023/05/19 02:15:02;;;;;;;10.02;5.15;;;;;;;;;;5090936;27;20073;-71
2023/05/19 02:17:31;;;;;;;12.80;5.30;;;;;;;;;;5092251;27;20063;-71
2023/05/19 02:19:57;;;;;;;12.65;5.78;;;;;;;;;;5112005;27;20181;-71
2023/05/19 02:22:22;;;;;;;11.60;4.78;;;;;;;;;;5100267;28;20123;-71
2023/05/19 02:24:50;;;;;;;11.90;4.65;;;;;;;;;;5104936;27;20023;-71
2023/05/19 02:27:16;;;;;;;11.98;5.38;;;;;;;;;;5095223;27;20496;-71
2023/05/19 02:29:41;;;;;;;15.55;5.40;;;;;;;;;;5098938;27;20078;-71
2023/05/19 02:32:06;;;;;;;10.55;5.30;;;;;;;;;;5101673;27;20062;-71
2023/05/19 02:34:32;;;;;;;11.63;5.25;;;;;;;;;;5105327;27;20103;-71
2023/05/19 02:36:57;;;;;;;11.82;5.05;;;;;;;;;;5094010;28;20023;-71
2023/05/19 02:39:23;;;;;;;12.70;5.30;;;;;;;;;;5108880;28;20015;-71
2023/05/19 02:41:48;;;;;;;12.35;5.28;;;;;;;;;;5099548;28;20404;-71
2023/05/19 02:44:14;;;;;;;10.23;5.30;;;;;;;;;;5099462;28;20039;-71
2023/05/19 02:46:39;;;;;;;11.60;5.10;;;;;;;;;;5093654;27;20028;-71
2023/05/19 02:49:05;;;;;;;11.38;5.07;;;;;;;;;;5102607;27;20027;-71
2023/05/19 02:51:30;;;;;;;14.18;5.60;;;;;;;;;;5094632;28;20031;-71
2023/05/19 02:53:56;;;;;;;10.77;5.53;;;;;;;;;;5099552;27;20276;-71
2023/05/19 02:56:21;;;;;;;11.75;5.15;;;;;;;;;;5103889;27;20028;-71
2023/05/19 02:58:46;;;;;;;13.27;5.95;;;;;;;;;;5087619;27;20051;-71
2023/05/19 03:01:12;;;;;;;15.10;5.35;;;;;;;;;;5088651;27;20032;-71
2023/05/19 03:03:37;;;;;;;10.20;5.32;;;;;;;;;;5102696;28;20027;-71
2023/05/19 03:06:03;;;;;;;11.15;5.65;;;;;;;;;;5097757;28;20570;-71
2023/05/19 03:08:29;;;;;;;12.93;5.95;;;;;;;;;;5093213;28;20565;-71
2023/05/19 03:10:54;;;;;;;12.77;5.15;;;;;;;;;;5100108;27;20153;-71
2023/05/19 03:13:19;;;;;;;14.07;6.20;;;;;;;;;;5102311;27;20023;-71
2023/05/19 03:15:45;;;;;;;10.88;5.43;;;;;;;;;;5099300;27;20081;-71
2023/05/19 03:18:13;;;;;;;13.35;5.43;;;;;;;;;;5104516;27;20454;-71
2023/05/19 03:20:38;;;;;;;12.43;5.13;;;;;;;;;;5113099;27;20571;-71
2023/05/19 03:23:03;;;;;;;13.65;5.93;;;;;;;;;;5103232;27;20035;-71
2023/05/19 03:25:29;;;;;;;17.48;5.50;;;;;;;;;;5100068;27;20031;-71
2023/05/19 03:27:54;;;;;;;11.05;5.40;;;;;;;;;;5093211;28;20100;-71
2023/05/19 03:30:21;;;;;;;17.35;6.30;;;;;;;;;;5091361;27;20035;-71
2023/05/19 03:32:46;;;;;;;11.45;5.13;;;;;;;;;;5093249;27;20045;-71
2023/05/19 03:35:11;;;;;;;16.27;6.40;;;;;;;;;;5103072;27;20040;-71
2023/05/19 03:37:37;;;;;;;12.93;5.93;;;;;;;;;;5096775;27;20040;-71
2023/05/19 03:40:04;;;;;;;15.48;5.95;;;;;;;;;;5093632;28;20031;-71
2023/05/19 03:42:29;;;;;;;10.13;5.43;;;;;;;;;;5098018;28;20821;-71
2023/05/19 03:44:54;;;;;;;13.88;5.25;;;;;;;;;;5098175;27;20032;-71
2023/05/19 03:47:20;;;;;;;14.55;5.95;;;;;;;;;;5104415;28;20102;-71
2023/05/19 03:49:45;;;;;;;12.57;5.78;;;;;;;;;;5102062;28;20118;-71
2023/05/19 03:52:11;;;;;;;15.30;5.22;;;;;;;;;;5092681;28;20020;-71
2023/05/19 03:54:38;;;;;;;11.77;6.03;;;;;;;;;;5101807;27;20031;-71
2023/05/19 03:57:04;;;;;;;17.05;5.95;;;;;;;;;;5097921;28;20028;-71
2023/05/19 03:59:30;;;;;;;15.40;6.13;;;;;;;;;;5119355;27;20031;-71
2023/05/19 04:01:56;;;;;;;14.73;6.40;;;;;;;;;;5113321;27;20108;-71
2023/05/19 04:04:21;;;;;;;15.23;5.40;;;;;;;;;;5107563;28;20028;-71
2023/05/19 04:06:47;;;;;;;16.42;5.70;;;;;;;;;;5103083;27;20029;-71
2023/05/19 04:09:14;;;;;;;37.10;7.60;;;;;;;;;;5104494;27;20050;-71
2023/05/19 04:11:41;;;;;;;12.75;6.10;;;;;;;;;;5096219;27;20027;-71
2023/05/19 04:14:06;;;;;;;13.82;5.75;;;;;;;;;;5088370;28;20726;-71
2023/05/19 04:16:32;;;;;;;13.98;5.97;;;;;;;;;;5099986;28;20046;-71
2023/05/19 04:18:58;;;;;;;16.88;5.88;;;;;;;;;;5100492;27;20040;-71
2023/05/19 04:21:23;;;;;;;12.70;5.75;;;;;;;;;;5111726;27;20061;-72
2023/05/19 04:23:48;;;;;;;13.75;5.95;;;;;;;;;;5104568;28;20039;-72
2023/05/19 04:26:14;;;;;;;13.27;5.95;;;;;;;;;;5102886;27;20504;-71
2023/05/19 04:28:43;;;;;;;12.95;5.95;;;;;;;;;;5095433;27;20078;-71
2023/05/19 04:31:09;;;;;;;17.48;5.95;;;;;;;;;;5106808;28;20728;-71
2023/05/19 04:33:36;;;;;;;13.70;5.85;;;;;;;;;;5109377;27;20170;-71
2023/05/19 04:36:07;;;;;;;13.90;5.57;;;;;;;;;;5109989;27;20035;-71
2023/05/19 04:38:33;;;;;;;12.88;5.55;;;;;;;;;;5110415;27;20043;-71
2023/05/19 04:41:00;;;;;;;16.15;6.45;;;;;;;;;;5098894;28;20050;-71
2023/05/19 04:43:26;;;;;;;19.63;6.40;;;;;;;;;;5095731;28;20109;-71
2023/05/19 04:45:51;;;;;;;15.40;5.40;;;;;;;;;;5099245;28;20152;-71
2023/05/19 04:48:17;;;;;;;15.93;6.32;;;;;;;;;;5091594;28;20079;-71
2023/05/19 04:50:42;;;;;;;18.17;6.35;;;;;;;;;;5094503;28;20032;-71
2023/05/19 04:53:08;;;;;;;15.65;6.47;;;;;;;;;;5088953;27;20028;-71
2023/05/19 04:55:33;;;;;;;13.40;6.80;;;;;;;;;;5099284;27;20027;-71
2023/05/19 04:57:59;;;;;;;14.13;6.13;;;;;;;;;;5104281;27;20039;-71
2023/05/19 05:00:25;;;;;;;16.23;6.45;;;;;;;;;;5091220;27;20043;-71
2023/05/19 05:02:50;;;;;;;19.02;6.22;;;;;;;;;;5120405;27;20092;-71
2023/05/19 05:05:16;;;;;;;12.93;6.00;;;;;;;;;;5101816;27;20080;-71
2023/05/19 05:07:41;;;;;;;16.65;6.30;;;;;;;;;;5106735;27;20540;-71
2023/05/19 05:10:07;;;;;;;15.85;6.57;;;;;;;;;;5103147;28;20042;-71
2023/05/19 05:12:34;;;;;;;16.02;6.25;;;;;;;;;;5102148;28;20007;-71
2023/05/19 05:14:59;;;;;;;16.73;6.05;;;;;;;;;;5101761;27;20031;-71
2023/05/19 05:17:25;;;;;;;13.48;6.50;;;;;;;;;;5107177;27;20027;-71
2023/05/19 05:19:51;;;;;;;14.73;6.25;;;;;;;;;;5115731;27;20039;-71
2023/05/19 05:22:17;;;;;;;13.50;6.38;;;;;;;;;;5112239;27;20032;-71
2023/05/19 05:24:43;;;;;;;17.25;6.60;;;;;;;;;;5105106;27;20022;-71
2023/05/19 05:27:08;;;;;;;16.45;6.63;;;;;;;;;;5097946;27;20115;-72
2023/05/19 05:29:34;;;;;;;16.58;6.70;;;;;;;;;;5097520;27;20631;-71
2023/05/19 05:31:59;;;;;;;16.15;6.63;;;;;;;;;;5102349;28;20076;-71
2023/05/19 05:34:25;;;;;;;17.52;6.43;;;;;;;;;;5104310;27;20036;-72
2023/05/19 05:36:50;;;;;;;16.77;6.40;;;;;;;;;;5105051;28;20015;-71
2023/05/19 05:39:16;;;;;;;14.52;6.65;;;;;;;;;;5094389;28;20529;-71
2023/05/19 05:41:41;;;;;;;15.73;7.05;;;;;;;;;;5089670;27;20046;-72
2023/05/19 05:44:06;;;;;;;19.88;7.22;;;;;;;;;;5097741;28;20032;-72
2023/05/19 05:46:32;;;;;;;13.68;6.60;;;;;;;;;;5098116;28;20035;-72
2023/05/19 05:48:57;;;;;;;14.82;6.25;;;;;;;;;;5096336;27;20058;-71
2023/05/19 05:51:23;;;;;;;16.33;6.85;;;;;;;;;;5101290;27;20031;-72
2023/05/19 05:53:53;;;;;;;15.50;6.38;;;;;;;;;;5103651;27;20436;-72
2023/05/19 05:56:20;;;;;;;18.17;7.10;;;;;;;;;;5096631;27;20653;-72
2023/05/19 05:58:46;;;;;;;24.25;7.60;;;;;;;;;;5090301;28;20118;-72
2023/05/19 06:01:11;;;;;;;20.58;7.28;;;;;;;;;;5098322;27;20127;-72
2023/05/19 06:03:43;;;;;;;15.57;7.07;;;;;;;;;;5098121;27;20397;-71
2023/05/19 06:06:09;;;;;;;27.15;9.70;;;;;;;;;;5098904;27;20054;-71
2023/05/19 06:08:35;;;;;;;27.63;7.45;;;;;;;;;;5097936;27;20561;-71
2023/05/19 06:11:06;;;;;;;22.67;7.15;;;;;;;;;;5100081;27;20111;-72
2023/05/19 06:13:32;;;;;;;19.98;7.78;;;;;;;;;;5092973;27;20034;-72
2023/05/19 06:15:57;;;;;;;19.15;6.85;;;;;;;;;;5094752;28;20024;-72
2023/05/19 06:18:22;;;;;;;17.92;6.78;;;;;;;;;;5095786;27;20027;-72
2023/05/19 06:20:48;;;;;;;18.25;7.60;;;;;;;;;;5092800;27;20067;-71
2023/05/19 06:23:13;;;;;;;17.08;7.00;;;;;;;;;;5106919;27;20038;-72
2023/05/19 06:25:38;;;;;;;18.80;7.00;;;;;;;;;;5101975;27;20032;-72
2023/05/19 06:28:04;;;;;;;17.75;6.75;;;;;;;;;;5099028;27;20027;-72
2023/05/19 06:30:29;;;;;;;26.38;8.32;;;;;;;;;;5093160;27;20454;-72
2023/05/19 06:32:55;;;;;;;19.33;8.07;;;;;;;;;;5091245;28;20054;-71
2023/05/19 06:35:20;;;;;;;18.33;6.80;;;;;;;;;;5099270;27;20031;-71
2023/05/19 06:37:46;;;;;;;17.20;7.28;;;;;;;;;;5097731;27;20051;-71
2023/05/19 06:40:11;;;;;;;18.05;7.78;;;;;;;;;;5103538;27;20104;-72
2023/05/19 06:42:37;;;;;;;16.98;7.60;;;;;;;;;;5103914;28;20083;-72
2023/05/19 06:45:02;;;;;;;15.38;7.00;;;;;;;;;;5095318;28;20048;-71
2023/05/19 06:47:28;;;;;;;15.52;7.35;;;;;;;;;;5090461;27;20059;-71
2023/05/19 06:49:54;;;;;;;16.73;7.88;;;;;;;;;;5088728;28;20386;-71
2023/05/19 06:52:20;;;;;;;16.58;8.02;;;;;;;;;;5104456;28;20043;-72
2023/05/19 06:54:46;;;;;;;20.33;7.93;;;;;;;;;;5100522;28;20063;-71
2023/05/19 06:57:11;;;;;;;28.85;8.68;;;;;;;;;;5103090;28;20582;-72
2023/05/19 06:59:39;;;;;;;21.10;8.23;;;;;;;;;;5101151;28;20040;-71
2023/05/19 07:02:05;;;;;;;21.73;8.43;;;;;;;;;;5097827;28;20047;-71
2023/05/19 07:04:31;;;;;;;14.60;6.47;;;;;;;;;;5093710;27;20043;-72
2023/05/19 07:06:56;;;;;;;14.98;6.85;;;;;;;;;;5093258;27;20032;-71
2023/05/19 07:09:21;;;;;;;25.83;8.13;;;;;;;;;;5096342;28;20031;-71
2023/05/19 07:11:47;;;;;;;17.75;7.50;;;;;;;;;;5092830;28;20036;-72
2023/05/19 07:14:12;;;;;;;19.40;7.32;;;;;;;;;;5090214;28;20059;-72
2023/05/19 07:16:37;;;;;;;22.63;7.70;;;;;;;;;;5095267;27;20093;-71
2023/05/19 07:19:03;;;;;;;16.88;7.25;;;;;;;;;;5094813;28;20028;-71
2023/05/19 07:21:28;;;;;;;15.93;7.43;;;;;;;;;;5093984;28;20110;-71
2023/05/19 07:23:53;;;;;;;18.10;7.78;;;;;;;;;;5093933;27;20032;-71
2023/05/19 07:26:19;;;;;;;17.38;7.70;;;;;;;;;;5098416;27;20516;-71
2023/05/19 07:28:45;;;;;;;22.52;8.18;;;;;;;;;;5092634;28;20090;-71
2023/05/19 07:31:10;;;;;;;19.60;7.97;;;;;;;;;;5095507;28;20048;-71
2023/05/19 07:33:35;;;;;;;15.20;7.10;;;;;;;;;;5094208;27;20024;-71
2023/05/19 07:36:01;;;;;;;20.30;8.40;;;;;;;;;;5091066;28;20038;-71
2023/05/19 07:38:27;;;;;;;20.05;8.50;;;;;;;;;;5096785;28;20107;-72
2023/05/19 07:40:53;;;;;;;16.70;7.97;;;;;;;;;;5090588;28;20051;-72
2023/05/19 07:43:18;;;;;;;15.02;7.53;;;;;;;;;;5091782;27;20036;-71
2023/05/19 07:45:43;;;;;;;15.32;7.30;;;;;;;;;;5097505;28;20601;-71
2023/05/19 07:48:09;;;;;;;18.38;7.78;;;;;;;;;;5095524;27;20028;-71
2023/05/19 07:50:34;;;;;;;16.27;8.25;;;;;;;;;;5091317;28;20550;-71
2023/05/19 07:53:00;;;;;;;20.67;7.88;;;;;;;;;;5090094;27;20032;-71
2023/05/19 07:55:25;;;;;;;16.10;8.07;;;;;;;;;;5092086;27;20512;-71
2023/05/19 07:57:50;;;;;;;17.67;8.27;;;;;;;;;;5099800;27;20063;-71
2023/05/19 08:00:16;;;;;;;19.58;8.75;;;;;;;;;;5101586;27;20071;-72
2023/05/19 08:02:42;;;;;;;20.98;8.45;;;;;;;;;;5103019;27;20070;-71
2023/05/19 08:05:08;;;;;;;15.85;7.75;;;;;;;;;;5112116;27;21319;-71
2023/05/19 08:07:34;;;;;;;17.73;7.63;;;;;;;;;;5098660;27;20043;-71
2023/05/19 08:09:59;;;;;;;16.90;8.13;;;;;;;;;;5095336;27;20028;-71
2023/05/19 08:12:25;;;;;;;19.30;8.30;;;;;;;;;;5096756;27;20029;-71
2023/05/19 08:14:51;;;;;;;14.75;7.10;;;;;;;;;;5099541;27;20032;-71
2023/05/19 08:17:16;;;;;;;20.50;7.93;;;;;;;;;;5090788;27;20055;-71
2023/05/19 08:19:42;;;;;;;15.43;7.30;;;;;;;;;;5088881;27;20082;-71
2023/05/19 08:22:07;;;;;;;17.67;7.47;;;;;;;;;;5090818;27;20047;-71
2023/05/19 08:24:33;;;;;;;19.88;8.27;;;;;;;;;;5091099;27;20020;-71
2023/05/19 08:26:58;;;;;;;15.63;8.38;;;;;;;;;;5093222;27;20055;-71
2023/05/19 08:29:24;;;;;;;17.60;7.82;;;;;;;;;;5099239;27;20392;-71
2023/05/19 08:31:51;;;;;;;15.27;7.55;;;;;;;;;;5092525;27;20081;-71
2023/05/19 08:34:17;;;;;;;18.05;8.15;;;;;;;;;;5095897;27;20039;-71
2023/05/19 08:36:44;;;;;;;16.52;7.60;;;;;;;;;;5100227;27;20030;-71
2023/05/19 08:39:10;;;;;;;13.60;7.25;;;;;;;;;;5093379;27;20581;-71
2023/05/19 08:41:35;;;;;;;15.15;7.07;;;;;;;;;;5100503;27;20047;-71
2023/05/19 08:44:00;;;;;;;14.35;7.05;;;;;;;;;;5093160;27;20040;-71
2023/05/19 08:46:28;;;;;;;13.13;6.75;;;;;;;;;;5095478;27;20039;-71
2023/05/19 08:49:03;;;;;;;15.73;8.05;;;;;;;;;;5098282;27;20110;-71
2023/05/19 08:51:28;;;;;;;13.70;6.43;;;;;;;;;;5096631;28;20032;-71
2023/05/19 08:54:03;;;;;;;14.07;7.65;;;;;;;;;;5096425;27;20027;-71
2023/05/19 08:56:30;;;;;;;16.48;7.25;;;;;;;;;;5096591;27;20122;-71
2023/05/19 08:58:59;;;;;;;21.02;8.07;;;;;;;;;;5093676;27;20089;-71
2023/05/19 09:01:27;;;;;;;15.30;8.02;;;;;;;;;;5090829;27;21015;-71
2023/05/19 09:03:53;;;;;;;16.35;7.57;;;;;;;;;;5092581;27;20031;-71
2023/05/19 09:06:20;;;;;;;16.23;7.72;;;;;;;;;;5101639;27;20046;-71
2023/05/19 09:08:46;;;;;;;16.60;6.95;;;;;;;;;;5086028;27;20119;-71
2023/05/19 09:11:11;;;;;;;20.50;7.53;;;;;;;;;;5089424;27;20119;-71
2023/05/19 09:13:37;;;;;;;13.02;6.82;;;;;;;;;;5094276;27;20032;-71
2023/05/19 09:16:03;;;;;;;15.60;7.95;;;;;;;;;;5095435;27;20112;-71
2023/05/19 09:18:29;;;;;;;16.35;7.75;;;;;;;;;;5097670;27;20026;-71
2023/05/19 09:20:59;;;;;;;20.48;8.55;;;;;;;;;;5100286;27;20036;-71
2023/05/19 09:23:29;;;;;;;15.65;7.32;;;;;;;;;;5103438;27;20047;-71
2023/05/19 09:25:56;;;;;;;14.65;7.30;;;;;;;;;;5107677;27;20086;-71
2023/05/19 09:28:35;;;;;;;19.80;8.15;;;;;;;;;;5100806;27;20126;-71
2023/05/19 09:31:00;;;;;;;15.23;7.28;;;;;;;;;;5094430;27;20122;-71
2023/05/19 09:33:27;;;;;;;13.13;6.43;;;;;;;;;;5097424;28;20208;-72
2023/05/19 09:35:54;;;;;;;27.23;7.00;;;;;;;;;;5097630;27;20085;-71
2023/05/19 09:38:20;;;;;;;12.13;6.40;;;;;;;;;;5093080;27;20062;-71
2023/05/19 09:40:47;;;;;;;14.63;7.03;;;;;;;;;;5096616;27;20058;-72
2023/05/19 09:43:13;;;;;;;14.82;6.80;;;;;;;;;;5095854;27;20028;-71
2023/05/19 09:45:38;;;;;;;10.05;6.00;;;;;;;;;;5098381;27;20045;-71
2023/05/19 09:48:04;;;;;;;18.58;6.60;;;;;;;;;;5100093;27;20044;-72
2023/05/19 09:50:31;;;;;;;12.10;6.47;;;;;;;;;;5095938;27;20251;-71
2023/05/19 09:52:57;;;;;;;10.57;6.47;;;;;;;;;;5097970;27;20032;-71
2023/05/19 09:55:25;;;;;;;13.00;5.97;;;;;;;;;;5098876;27;20522;-72
2023/05/19 09:57:51;;;;;;;14.40;6.30;;;;;;;;;;5089459;27;20392;-72
2023/05/19 10:00:18;;;;;;;14.30;6.43;;;;;;;;;;5089262;27;20050;-72
2023/05/19 10:02:45;;;;;;;11.48;6.70;;;;;;;;;;5087578;27;20039;-71
2023/05/19 10:05:16;;;;;;;12.40;6.70;;;;;;;;;;5094422;27;20052;-72
2023/05/19 10:07:51;;;;;;;11.38;5.97;;;;;;;;;;5104442;27;20491;-71
2023/05/19 10:10:20;;;;;;;14.38;5.72;;;;;;;;;;5097831;27;20047;-72
2023/05/19 10:12:46;;;;;;;11.00;5.50;;;;;;;;;;5097963;27;20031;-72
2023/05/19 10:15:14;;;;;;;11.88;6.13;;;;;;;;;;5098713;27;20817;-71
2023/05/19 10:17:41;;;;;;;16.95;6.78;;;;;;;;;;5099393;27;20036;-71
2023/05/19 10:20:14;;;;;;;11.45;5.85;;;;;;;;;;5087085;28;20228;-72
2023/05/19 10:22:40;;;;;;;;;;;;;;;;;;5099690;27;20043;-71
2023/05/19 10:25:07;;;;;;;12.38;6.55;;;;;;;;;;5092423;27;19957;-72
2023/05/19 10:27:37;;;;;;;13.38;6.60;;;;;;;;;;5104395;27;20114;-72
2023/05/19 10:30:20;;;;;;;12.60;5.72;;;;;;;;;;5091584;27;20043;-72
2023/05/19 10:32:47;;;;;;;8.30;5.30;;;;;;;;;;5093218;27;20044;-71
2023/05/19 10:35:22;;;;;;;19.83;6.10;;;;;;;;;;5095100;28;20331;-71
2023/05/19 10:38:03;;;;;;;10.90;5.28;;;;;;;;;;5093293;27;20036;-71
2023/05/19 10:40:35;;;;;;;10.23;5.53;;;;;;;;;;5102267;27;20071;-72
2023/05/19 10:43:24;;;;;;;9.18;4.65;;;;;;;;;;5092085;27;20124;-71
2023/05/19 10:45:53;;;;;;;11.30;5.00;;;;;;;;;;5098143;28;20028;-71
2023/05/19 10:48:23;;;;;;;11.13;5.28;;;;;;;;;;5102983;27;20047;-71
2023/05/19 10:50:53;;;;;;;10.82;5.38;;;;;;;;;;5086875;27;20417;-72
2023/05/19 10:53:21;;;;;;;8.43;3.67;;;;;;;;;;5088090;28;20036;-71
2023/05/19 10:56:02;;;;;;;9.77;4.68;;;;;;;;;;5094198;28;20096;-71
2023/05/19 10:58:43;;;;;;;6.82;4.25;;;;;;;;;;5092379;28;20131;-71
2023/05/19 11:01:15;;;;;;;9.10;4.78;;;;;;;;;;5096470;28;20104;-71
2023/05/19 11:03:50;;;;;;;6.80;3.67;;;;;;;;;;5095524;28;20047;-71
2023/05/19 11:06:26;;;;;;;6.13;3.40;;;;;;;;;;5093138;28;20046;-72
2023/05/19 11:09:00;;;;;;;8.88;4.53;;;;;;;;;;5099767;28;20787;-72
2023/05/19 11:11:41;;;;;;;9.88;4.57;;;;;;;;;;5093328;28;20028;-72
2023/05/19 11:14:10;;;;;;;9.38;4.97;;;;;;;;;;5096927;27;20123;-72
2023/05/19 11:16:35;;;;;;;15.10;5.15;;;;;;;;;;5098185;28;20032;-71
2023/05/19 11:19:01;;;;;;;8.75;4.00;;;;;;;;;;5085619;28;20567;-71
2023/05/19 11:21:51;;;;;;;8.43;4.70;;;;;;;;;;5089917;28;20085;-71
2023/05/19 11:24:41;;;;;;;11.25;4.97;;;;;;;;;;5090116;28;20515;-71
2023/05/19 11:27:32;;;;;;;10.13;3.83;;;;;;;;;;5096167;27;20039;-72
2023/05/19 11:30:08;;;;;;;10.93;4.60;;;;;;;;;;5096623;28;20556;-72
2023/05/19 11:32:37;;;;;;;8.57;4.18;;;;;;;;;;5107798;27;20682;-71
2023/05/19 11:35:04;;;;;;;9.93;5.00;;;;;;;;;;5098805;27;20465;-72
2023/05/19 11:37:32;;;;;;;12.85;4.70;;;;;;;;;;5097291;27;20123;-72
2023/05/19 11:40:00;;;;;;;11.95;4.90;;;;;;;;;;5094293;27;20428;-72
2023/05/19 11:42:25;;;;;;;8.95;4.75;;;;;;;;;;5101045;27;20027;-72
2023/05/19 11:44:54;;;;;;;13.10;4.53;;;;;;;;;;5096079;27;20106;-72
2023/05/19 11:47:19;;;;;;;10.35;4.70;;;;;;;;;;5103669;27;20097;-72
2023/05/19 11:49:56;;;;;;;8.55;5.22;;;;;;;;;;5104536;27;20051;-72
2023/05/19 11:52:22;;;;;;;9.50;4.43;;;;;;;;;;5113850;27;20771;-71
2023/05/19 11:54:48;;;;;;;7.22;4.47;;;;;;;;;;5106467;27;20054;-72
2023/05/19 11:57:13;;;;;;;9.48;5.30;;;;;;;;;;5095648;27;20504;-71
2023/05/19 11:59:42;;;;;;;9.70;4.93;;;;;;;;;;5100064;27;20039;-71
2023/05/19 12:02:24;;;;;;;7.88;4.53;;;;;;;;;;5098433;27;20408;-72
2023/05/19 12:04:50;;;;;;;8.25;4.90;;;;;;;;;;5102609;27;20041;-71
2023/05/19 12:07:18;;;;;;;8.45;4.55;;;;;;;;;;5108521;27;20135;-72
2023/05/19 12:09:44;;;;;;;11.15;5.03;;;;;;;;;;5111744;27;20100;-71
2023/05/19 12:12:12;;;;;;;7.43;4.30;;;;;;;;;;5102267;27;20032;-71
2023/05/19 12:14:39;;;;;;;7.65;4.95;;;;;;;;;;5094110;27;20623;-72
2023/05/19 12:17:16;;;;;;;15.57;6.18;;;;;;;;;;5105444;27;20028;-72
2023/05/19 12:19:46;;;;;;;8.80;5.13;;;;;;;;;;5098026;27;20044;-71
2023/05/19 12:22:13;;;;;;;9.38;4.53;;;;;;;;;;5097493;27;20031;-71
2023/05/19 12:24:39;;;;;;;8.68;4.88;;;;;;;;;;5099055;27;20527;-71
2023/05/19 12:27:13;;;;;;;11.60;5.05;;;;;;;;;;5092079;28;20028;-72
2023/05/19 12:29:39;;;;;;;12.63;5.75;;;;;;;;;;5101337;27;20529;-71
2023/05/19 12:32:06;;;;;;;8.13;5.28;;;;;;;;;;5098382;27;20070;-72
2023/05/19 12:34:35;;;;;;;9.80;4.63;;;;;;;;;;5095492;27;20039;-72
2023/05/19 12:37:01;;;;;;;9.88;4.80;;;;;;;;;;5100217;27;20493;-73
2023/05/19 12:39:27;;;;;;;9.88;5.00;;;;;;;;;;5103418;27;20039;-73
2023/05/19 12:42:00;;;;;;;10.07;5.05;;;;;;;;;;5097697;27;20046;-72
2023/05/19 12:44:26;;;;;;;10.00;4.68;;;;;;;;;;5099010;27;20463;-72
2023/05/19 12:46:52;;;;;;;10.23;5.50;;;;;;;;;;5094216;28;20039;-72
2023/05/19 12:49:17;;;;;;;12.25;4.65;;;;;;;;;;5096163;27;20047;-72
2023/05/19 12:51:51;;;;;;;7.63;4.45;;;;;;;;;;5090486;28;20024;-72
2023/05/19 12:54:22;;;;;;;;;;;;;;;;;;5088388;27;20748;-72
2023/05/19 12:56:51;;;;;;;10.75;4.78;;;;;;;;;;5096110;27;20018;-72
2023/05/19 12:59:24;;;;;;;9.43;4.78;;;;;;;;;;5094820;27;20040;-73
2023/05/19 13:01:58;;;;;;;9.88;5.05;;;;;;;;;;5095458;27;20499;-72
2023/05/19 13:04:24;;;;;;;7.65;4.47;;;;;;;;;;5093722;27;20108;-72
2023/05/19 13:06:51;;;;;;;7.55;4.80;;;;;;;;;;5092556;27;20047;-72
2023/05/19 13:09:17;;;;;;;8.68;5.82;;;;;;;;;;5093902;27;20412;-71
2023/05/19 13:11:43;;;;;;;10.60;4.90;;;;;;;;;;5093599;27;20485;-72
2023/05/19 13:14:09;;;;;;;9.63;5.20;;;;;;;;;;5092527;27;20040;-72
2023/05/19 13:16:34;;;;;;;13.68;6.35;;;;;;;;;;5095149;27;20031;-72
2023/05/19 13:19:00;;;;;;;8.65;5.78;;;;;;;;;;5091443;27;20040;-72
2023/05/19 13:21:25;;;;;;;8.95;5.50;;;;;;;;;;5096174;27;20078;-72
2023/05/19 13:23:52;;;;;;;9.48;5.20;;;;;;;;;;5094515;27;20040;-72
2023/05/19 13:26:17;;;;;;;8.48;5.28;;;;;;;;;;5094028;27;20035;-72
2023/05/19 13:28:42;;;;;;;8.38;4.97;;;;;;;;;;5101862;28;20032;-72
2023/05/19 13:31:08;;;;;;;8.82;5.15;;;;;;;;;;5103677;27;20032;-71
2023/05/19 13:33:33;;;;;;;7.50;4.50;;;;;;;;;;5094026;27;20082;-72
2023/05/19 13:35:59;;;;;;;9.07;6.15;;;;;;;;;;5095010;27;20035;-72
2023/05/19 13:38:24;;;;;;;11.38;6.10;;;;;;;;;;5094354;27;20034;-73
2023/05/19 13:40:50;;;;;;;8.15;5.18;;;;;;;;;;5092277;27;20054;-72
2023/05/19 13:43:15;;;;;;;7.38;5.20;;;;;;;;;;5093657;27;20035;-73
2023/05/19 13:45:43;;;;;;;9.05;5.45;;;;;;;;;;5097373;28;20039;-73
2023/05/19 13:48:09;;;;;;;8.60;5.15;;;;;;;;;;5093028;27;20038;-72
2023/05/19 13:50:35;;;;;;;14.13;6.07;;;;;;;;;;5094456;27;20032;-72
2023/05/19 13:53:00;;;;;;;7.88;5.00;;;;;;;;;;5094547;27;20042;-73
2023/05/19 13:55:26;;;;;;;7.53;5.28;;;;;;;;;;5096024;28;20039;-73
2023/05/19 13:57:52;;;;;;;7.90;5.32;;;;;;;;;;5095573;27;20108;-73
2023/05/19 14:00:18;;;;;;;10.82;5.55;;;;;;;;;;5092467;27;20771;-73
2023/05/19 14:02:43;;;;;;;13.25;5.70;;;;;;;;;;5096954;27;20065;-73
2023/05/19 14:05:09;;;;;;;12.85;6.32;;;;;;;;;;5098909;28;21485;-73
2023/05/19 14:07:34;;;;;;;8.20;6.75;;;;;;;;;;5097155;27;20131;-73
2023/05/19 14:10:00;;;;;;;8.98;6.53;;;;;;;;;;5095156;27;20026;-73
2023/05/19 14:12:26;;;;;;;10.38;6.35;;;;;;;;;;5099623;28;20058;-73
2023/05/19 14:14:51;;;;;;;10.90;6.32;;;;;;;;;;5100320;27;20060;-73
2023/05/19 14:17:17;;;;;;;14.63;6.50;;;;;;;;;;5096476;27;20051;-72
2023/05/19 14:19:42;;;;;;;11.18;6.65;;;;;;;;;;5091734;27;20039;-73
2023/05/19 14:22:07;;;;;;;7.85;6.35;;;;;;;;;;5095635;28;20028;-73
2023/05/19 14:24:33;;;;;;;10.63;6.60;;;;;;;;;;5096301;27;20106;-72
2023/05/19 14:26:59;;;;;;;8.95;5.85;;;;;;;;;;5097748;27;20095;-73
2023/05/19 14:29:25;;;;;;;9.18;5.90;;;;;;;;;;5092968;27;20446;-73
2023/05/19 14:31:51;;;;;;;7.85;6.15;;;;;;;;;;5097105;27;20035;-73
2023/05/19 14:34:19;;;;;;;11.20;6.40;;;;;;;;;;5093549;27;20385;-71
2023/05/19 14:36:45;;;;;;;12.10;8.27;;;;;;;;;;5096979;27;20066;-72